Time;durP1;ratioP1;P1;durP2;ratioP2;P2;SDS_P1;SDS_P2;PMS_P1;PMS_P2;Temp;Humidity;BMP_temperature;BMP_pressure;BME280_temperature;BME280_humidity;BME280_pressure;Samples;Min_cycle;Max_cycle;Signal;HPM_P1;HPM_P2
2022/10/13 00:01:24;;;;;;;20.15;10.80;;;11.40;99.90;;;;;;5080301;28;20228;-81
2022/10/13 00:04:13;;;;;;;19.75;9.90;;;11.40;99.90;;;;;;5079721;28;20283;-82
2022/10/13 00:07:02;;;;;;;20.55;10.63;;;11.40;99.90;;;;;;5075735;28;20375;-82
2022/10/13 00:09:51;;;;;;;19.02;10.85;;;11.40;99.90;;;;;;5073834;28;20598;-82
2022/10/13 00:12:41;;;;;;;18.92;10.15;;;11.40;99.90;;;;;;5079215;28;20250;-81
2022/10/13 00:15:32;;;;;;;21.85;10.70;;;11.30;99.90;;;;;;5079912;28;20337;-82
2022/10/13 00:18:21;;;;;;;21.80;11.23;;;11.30;99.90;;;;;;5077281;28;20622;-82
2022/10/13 00:21:12;;;;;;;20.05;10.73;;;11.40;99.90;;;;;;5079228;28;20219;-81
2022/10/13 00:24:01;;;;;;;23.95;10.57;;;11.30;99.90;;;;;;5075801;28;20234;-82
2022/10/13 00:26:51;;;;;;;26.48;10.65;;;11.30;99.90;;;;;;5077548;28;20235;-82
2022/10/13 00:29:41;;;;;;;18.92;11.07;;;11.30;99.90;;;;;;5079016;28;20235;-83
2022/10/13 00:32:30;;;;;;;17.67;9.45;;;11.20;99.90;;;;;;5081579;28;20215;-82
2022/10/13 00:35:19;;;;;;;17.70;10.45;;;11.20;99.90;;;;;;5074537;28;20310;-83
2022/10/13 00:38:08;;;;;;;21.30;10.85;;;11.20;99.90;;;;;;5082481;28;20211;-83
2022/10/13 00:40:57;;;;;;;19.13;11.18;;;11.10;99.90;;;;;;5081432;28;20369;-83
2022/10/13 00:43:56;;;;;;;21.85;11.32;;;11.10;99.90;;;;;;5083594;28;20347;-82
2022/10/13 00:46:46;;;;;;;22.83;11.45;;;11.20;99.90;;;;;;5080138;28;20228;-83
2022/10/13 00:49:35;;;;;;;21.58;11.57;;;11.10;99.90;;;;;;5077994;28;20721;-81
2022/10/13 00:52:25;;;;;;;24.17;12.73;;;11.10;99.90;;;;;;5093326;28;20226;-82
2022/10/13 00:55:20;;;;;;;22.02;12.52;;;10.90;99.90;;;;;;5076696;28;20699;-81
2022/10/13 00:58:14;;;;;;;33.25;16.13;;;11.00;99.90;;;;;;5076812;28;20310;-81
2022/10/13 01:01:05;;;;;;;35.20;18.85;;;11.00;99.90;;;;;;5082234;28;20231;-81
2022/10/13 01:03:55;;;;;;;39.67;17.95;;;11.00;99.90;;;;;;5073421;28;20215;-80
2022/10/13 01:06:45;;;;;;;34.30;18.15;;;11.10;99.90;;;;;;5103236;27;20223;-80
2022/10/13 01:09:36;;;;;;;32.53;16.55;;;11.00;99.90;;;;;;5074809;28;20832;-81
2022/10/13 01:12:40;;;;;;;41.75;16.85;;;11.00;99.90;;;;;;5093594;28;20714;-81
2022/10/13 01:15:34;;;;;;;29.35;17.08;;;11.00;99.90;;;;;;5078391;28;20748;-79
2022/10/13 01:18:33;;;;;;;33.85;18.33;;;10.80;99.90;;;;;;5081955;28;20215;-80
2022/10/13 01:21:29;;;;;;;30.13;17.13;;;10.70;99.90;;;;;;5082692;28;20207;-79
2022/10/13 01:24:41;;;;;;;30.63;18.38;;;10.70;99.90;;;;;;5077282;28;20235;-80
2022/10/13 01:27:58;;;;;;;29.80;18.55;;;10.70;99.90;;;;;;5078091;28;20216;-77
2022/10/13 01:30:55;;;;;;;28.20;17.70;;;10.80;99.90;;;;;;5076029;28;22125;-79
2022/10/13 01:33:49;;;;;;;34.25;17.65;;;10.80;99.90;;;;;;5079623;28;20690;-80
2022/10/13 01:36:47;;;;;;;33.30;19.00;;;10.60;99.90;;;;;;5074627;28;20293;-79
2022/10/13 01:39:40;;;;;;;30.73;17.52;;;10.60;99.90;;;;;;5079472;28;20219;-79
2022/10/13 01:42:36;;;;;;;34.88;18.02;;;10.70;99.90;;;;;;5082332;28;20289;-79
2022/10/13 01:45:35;;;;;;;32.58;18.05;;;10.50;99.90;;;;;;5075424;28;20579;-79
2022/10/13 01:48:28;;;;;;;36.30;18.08;;;10.60;99.90;;;;;;5078670;28;20215;-78
2022/10/13 01:51:19;;;;;;;28.55;17.63;;;10.60;99.90;;;;;;5075834;28;20219;-79
2022/10/13 01:54:13;;;;;;;32.78;18.88;;;10.60;99.90;;;;;;5078500;28;20248;-80
2022/10/13 01:57:02;;;;;;;32.00;17.73;;;10.60;99.90;;;;;;5078475;28;20253;-79
2022/10/13 01:59:51;;;;;;;29.85;17.25;;;10.70;99.90;;;;;;5091911;28;20585;-79
2022/10/13 02:02:47;;;;;;;31.83;17.85;;;10.60;99.90;;;;;;5085203;28;20223;-80
2022/10/13 02:05:48;;;;;;;38.15;17.95;;;10.60;99.90;;;;;;5083960;28;20224;-80
2022/10/13 02:08:44;;;;;;;28.63;17.48;;;10.70;99.90;;;;;;5080990;28;20234;-80
2022/10/13 02:11:33;;;;;;;30.70;18.38;;;10.50;99.90;;;;;;5075808;28;20219;-79
2022/10/13 02:14:26;;;;;;;28.25;17.58;;;10.60;99.90;;;;;;5068528;28;20243;-78
2022/10/13 02:17:16;;;;;;;32.95;17.75;;;10.50;99.90;;;;;;5079468;28;20219;-78
2022/10/13 02:20:07;;;;;;;32.45;18.95;;;10.50;99.90;;;;;;5076893;28;20219;-79
2022/10/13 02:23:02;;;;;;;30.65;18.23;;;10.60;99.90;;;;;;5078394;28;20774;-79
2022/10/13 02:25:51;;;;;;;35.85;19.30;;;10.50;99.90;;;;;;5077849;28;20240;-79
2022/10/13 02:28:41;;;;;;;34.08;18.85;;;10.50;99.90;;;;;;5079261;28;20223;-77
2022/10/13 02:31:29;;;;;;;33.13;18.33;;;10.40;99.90;;;;;;5080507;28;20219;-77
2022/10/13 02:34:18;;;;;;;32.97;19.58;;;10.50;99.90;;;;;;5079307;28;20223;-79
2022/10/13 02:37:06;;;;;;;37.22;18.50;;;10.30;99.90;;;;;;5078289;28;20705;-79
2022/10/13 02:39:56;;;;;;;35.30;19.60;;;10.20;99.90;;;;;;5074402;28;20226;-77
2022/10/13 02:42:45;;;;;;;33.63;18.42;;;10.10;99.90;;;;;;5078087;28;20219;-83
2022/10/13 02:45:34;;;;;;;30.45;19.73;;;10.20;99.90;;;;;;5078510;28;20212;-82
2022/10/13 02:48:23;;;;;;;32.08;19.27;;;10.30;99.90;;;;;;5078899;28;20219;-83
2022/10/13 02:51:11;;;;;;;34.28;19.95;;;10.10;99.90;;;;;;5076775;28;20713;-83
2022/10/13 02:54:00;;;;;;;35.08;19.45;;;10.00;99.90;;;;;;5078699;28;20216;-84
2022/10/13 02:56:50;;;;;;;35.22;20.35;;;10.00;99.90;;;;;;5078927;28;20215;-84
2022/10/13 02:59:39;;;;;;;35.17;21.58;;;10.00;99.90;;;;;;5080051;28;20259;-84
2022/10/13 03:02:28;;;;;;;33.28;20.90;;;10.00;99.90;;;;;;5078890;28;20263;-83
2022/10/13 03:05:17;;;;;;;37.03;20.73;;;9.90;99.90;;;;;;5076884;28;20225;-83
2022/10/13 03:08:06;;;;;;;33.47;20.85;;;9.90;99.90;;;;;;5081269;28;20363;-84
2022/10/13 03:10:55;;;;;;;38.58;22.40;;;9.90;99.90;;;;;;5077842;28;20689;-83
2022/10/13 03:13:45;;;;;;;38.60;22.45;;;9.90;99.90;;;;;;5080321;28;20218;-83
2022/10/13 03:16:33;;;;;;;33.72;21.77;;;9.80;99.90;;;;;;5072763;28;20228;-84
2022/10/13 03:19:22;;;;;;;36.08;23.02;;;9.70;99.90;;;;;;5079855;28;20211;-83
2022/10/13 03:22:13;;;;;;;40.85;23.33;;;9.60;99.90;;;;;;5081536;28;20311;-82
2022/10/13 03:25:02;;;;;;;34.80;22.55;;;9.60;99.90;;;;;;5080657;28;20242;-81
2022/10/13 03:27:51;;;;;;;40.05;23.08;;;9.60;99.90;;;;;;5070401;28;20246;-79
2022/10/13 03:30:41;;;;;;;39.25;23.17;;;9.60;99.90;;;;;;5081563;28;20227;-79
2022/10/13 03:33:30;;;;;;;38.78;24.75;;;9.40;99.90;;;;;;5077793;28;20227;-80
2022/10/13 03:36:19;;;;;;;41.88;24.75;;;9.30;99.90;;;;;;5079322;28;20223;-80
2022/10/13 03:39:12;;;;;;;43.00;24.90;;;9.30;99.90;;;;;;5074824;28;20241;-78
2022/10/13 03:42:03;;;;;;;37.47;24.48;;;9.20;99.90;;;;;;5082148;28;20331;-79
2022/10/13 03:44:52;;;;;;;37.15;23.88;;;9.10;99.90;;;;;;5077951;28;20220;-76
2022/10/13 03:47:45;;;;;;;37.08;24.17;;;9.10;99.90;;;;;;5079721;28;20249;-78
2022/10/13 03:50:34;;;;;;;38.03;23.90;;;9.00;99.90;;;;;;5065759;28;20598;-79
2022/10/13 03:53:23;;;;;;;39.30;23.92;;;9.10;99.90;;;;;;5077494;28;20224;-78
2022/10/13 03:56:14;;;;;;;38.33;23.17;;;9.00;99.90;;;;;;5074215;28;20335;-78
2022/10/13 03:59:12;;;;;;;35.65;24.08;;;8.90;99.90;;;;;;5075194;28;20219;-77
2022/10/13 04:02:01;;;;;;;34.08;22.80;;;8.90;99.90;;;;;;5075784;28;20231;-77
2022/10/13 04:04:51;;;;;;;34.13;23.05;;;8.90;99.90;;;;;;5077168;28;20338;-75
2022/10/13 04:07:40;;;;;;;34.92;22.90;;;9.00;99.90;;;;;;5090796;28;20211;-75
2022/10/13 04:10:39;;;;;;;33.05;22.65;;;9.10;99.90;;;;;;5072192;28;20666;-77
2022/10/13 04:13:27;;;;;;;39.28;22.55;;;9.10;99.90;;;;;;5075417;28;20216;-79
2022/10/13 04:16:18;;;;;;;35.50;22.75;;;8.80;99.90;;;;;;5079451;28;20958;-79
2022/10/13 04:19:07;;;;;;;34.60;22.23;;;8.70;99.90;;;;;;5082531;28;20215;-80
2022/10/13 04:21:57;;;;;;;34.65;22.33;;;8.90;99.90;;;;;;5075027;28;20532;-78
2022/10/13 04:24:46;;;;;;;32.95;21.83;;;8.60;99.90;;;;;;5073204;28;20231;-79
2022/10/13 04:27:37;;;;;;;34.72;22.38;;;8.50;99.90;;;;;;5076658;28;20216;-78
2022/10/13 04:30:25;;;;;;;35.55;22.13;;;8.30;99.90;;;;;;5076706;28;20223;-80
2022/10/13 04:33:14;;;;;;;32.88;22.05;;;8.50;99.90;;;;;;5076987;28;20226;-78
2022/10/13 04:36:04;;;;;;;34.20;22.35;;;8.60;99.90;;;;;;5078424;28;20221;-78
2022/10/13 04:38:54;;;;;;;35.00;23.23;;;8.30;99.90;;;;;;5082679;27;20215;-78
2022/10/13 04:41:43;;;;;;;34.55;24.05;;;8.40;99.90;;;;;;5077662;28;20226;-79
2022/10/13 04:44:32;;;;;;;34.80;23.00;;;8.50;99.90;;;;;;5075144;28;20220;-77
2022/10/13 04:47:20;;;;;;;34.35;22.65;;;8.50;99.90;;;;;;5078834;28;20748;-78
2022/10/13 04:50:10;;;;;;;37.95;23.45;;;8.50;99.90;;;;;;5077552;28;20238;-78
2022/10/13 04:52:59;;;;;;;33.20;23.20;;;8.70;99.90;;;;;;5080933;28;20281;-78
2022/10/13 04:55:49;;;;;;;33.67;23.50;;;8.50;99.90;;;;;;5083976;28;20238;-78
2022/10/13 04:58:39;;;;;;;32.40;23.85;;;8.40;99.90;;;;;;5076898;28;20219;-78
2022/10/13 05:01:28;;;;;;;34.03;23.35;;;8.40;99.90;;;;;;5076965;28;20224;-78
2022/10/13 05:04:17;;;;;;;35.57;22.77;;;8.50;99.90;;;;;;5078373;28;20710;-78
2022/10/13 05:07:05;;;;;;;35.17;23.73;;;8.50;99.90;;;;;;5075768;28;20224;-79
2022/10/13 05:10:06;;;;;;;34.17;23.65;;;8.40;99.90;;;;;;5082267;28;20227;-77
2022/10/13 05:12:56;;;;;;;36.00;22.50;;;8.40;99.90;;;;;;5081438;28;20250;-77
2022/10/13 05:15:45;;;;;;;30.70;22.83;;;8.60;99.90;;;;;;5077629;28;20315;-77
2022/10/13 05:18:35;;;;;;;34.50;22.33;;;8.60;99.90;;;;;;5083092;28;20211;-78
2022/10/13 05:21:26;;;;;;;32.15;22.35;;;8.50;99.90;;;;;;5076763;28;20230;-78
2022/10/13 05:24:15;;;;;;;36.38;22.75;;;8.50;99.90;;;;;;5078115;28;20650;-78
2022/10/13 05:27:13;;;;;;;32.25;22.40;;;8.60;99.90;;;;;;5078262;28;20238;-78
2022/10/13 05:30:03;;;;;;;36.33;23.58;;;8.60;99.90;;;;;;5079638;28;20232;-78
2022/10/13 05:32:56;;;;;;;37.70;22.67;;;8.50;99.90;;;;;;5076824;28;20258;-80
2022/10/13 05:35:45;;;;;;;33.67;23.38;;;8.50;99.90;;;;;;5079164;28;20803;-80
2022/10/13 05:38:34;;;;;;;36.60;23.05;;;8.30;99.90;;;;;;5083216;28;20273;-79
2022/10/13 05:41:24;;;;;;;35.28;23.98;;;8.40;99.90;;;;;;5092196;27;20319;-81
2022/10/13 05:44:13;;;;;;;32.17;22.57;;;8.50;99.90;;;;;;5095189;28;20232;-82
2022/10/13 05:47:15;;;;;;;33.05;22.13;;;8.60;99.90;;;;;;5087462;28;20602;-82
2022/10/13 05:50:07;;;;;;;34.63;22.20;;;8.50;99.90;;;;;;5084281;28;20224;-80
2022/10/13 05:52:57;;;;;;;35.55;24.40;;;8.50;99.90;;;;;;5083636;28;20228;-83
2022/10/13 05:55:46;;;;;;;34.47;23.17;;;8.30;99.90;;;;;;5080444;28;20228;-83
2022/10/13 05:58:38;;;;;;;33.92;23.48;;;8.40;99.90;;;;;;5083229;28;20333;-83
2022/10/13 06:01:30;;;;;;;33.22;22.67;;;8.40;99.90;;;;;;5083869;28;20222;-82
2022/10/13 06:04:25;;;;;;;39.55;23.05;;;8.50;99.90;;;;;;5083561;28;20224;-83
2022/10/13 06:07:14;;;;;;;33.73;23.33;;;8.60;99.90;;;;;;5078910;28;20223;-81
2022/10/13 06:10:04;;;;;;;37.65;23.20;;;8.60;99.90;;;;;;5073303;28;20316;-81
2022/10/13 06:12:52;;;;;;;33.95;21.38;;;8.70;99.90;;;;;;5078623;28;20228;-81
2022/10/13 06:38:49;;;;;;;38.07;22.13;;;9.40;99.90;;;;;;5088918;27;20653;-81
2022/10/13 06:41:40;;;;;;;38.65;21.67;;;9.40;99.90;;;;;;5079205;28;20251;-81
2022/10/13 06:44:30;;;;;;;35.90;21.42;;;9.50;99.90;;;;;;5070458;28;20311;-80
2022/10/13 06:47:22;;;;;;;34.70;21.15;;;9.60;99.90;;;;;;5070004;28;20227;-81
2022/10/13 06:50:10;;;;;;;37.83;19.63;;;9.70;99.90;;;;;;5097418;28;20223;-81
2022/10/13 06:52:59;;;;;;;40.03;21.45;;;9.80;99.90;;;;;;5082477;28;20215;-81
2022/10/13 06:55:50;;;;;;;33.72;19.63;;;9.80;99.90;;;;;;5092493;28;20223;-82
2022/10/13 06:58:40;;;;;;;33.58;19.83;;;9.90;99.90;;;;;;5082972;28;20234;-80
2022/10/13 07:01:29;;;;;;;32.15;19.40;;;10.00;99.90;;;;;;5077915;28;20223;-81
2022/10/13 07:04:19;;;;;;;30.95;19.33;;;10.00;99.90;;;;;;5060606;28;20339;-82
2022/10/13 07:07:08;;;;;;;32.58;19.52;;;10.20;99.90;;;;;;5065742;28;21444;-81
2022/10/13 07:09:57;;;;;;;36.08;18.77;;;10.30;99.90;;;;;;5062178;28;20231;-81
2022/10/13 07:12:47;;;;;;;36.08;20.55;;;10.30;99.90;;;;;;5082567;28;20223;-80
2022/10/13 07:15:38;;;;;;;37.03;20.23;;;10.30;99.90;;;;;;5093743;28;20229;-81
2022/10/13 07:18:26;;;;;;;35.25;19.60;;;10.50;99.90;;;;;;5080966;28;20368;-83
2022/10/13 16:05:24;;;;;;;14.43;4.93;;;13.80;99.90;;;;;;5094722;27;20646;-80
2022/10/13 16:08:14;;;;;;;11.80;5.03;;;13.70;99.90;;;;;;5085974;28;20578;-80
2022/10/13 16:11:07;;;;;;;13.35;5.60;;;13.70;99.90;;;;;;5103353;27;20292;-86
2022/10/13 16:13:56;;;;;;;14.20;5.43;;;13.70;99.90;;;;;;5117626;28;20233;-87
2022/10/13 16:16:45;;;;;;;13.32;4.97;;;13.70;99.90;;;;;;5112764;27;20230;-84
2022/10/13 16:19:34;;;;;;;17.20;5.03;;;13.70;99.90;;;;;;5115317;27;20309;-83
2022/10/13 16:22:25;;;;;;;14.02;5.80;;;13.70;99.90;;;;;;5097023;27;20225;-81
2022/10/13 16:25:13;;;;;;;18.17;5.97;;;13.70;99.90;;;;;;5115761;27;20229;-82
2022/10/13 16:28:02;;;;;;;16.02;5.55;;;13.70;99.90;;;;;;5109888;27;20229;-81
2022/10/13 16:30:51;;;;;;;13.15;5.57;;;13.70;99.90;;;;;;5103168;28;20233;-77
2022/10/13 16:33:40;;;;;;;13.82;5.93;;;13.70;99.90;;;;;;5101426;28;20653;-88
2022/10/13 16:36:30;;;;;;;15.10;6.05;;;13.60;99.90;;;;;;5109368;28;20359;-80
2022/10/13 16:39:22;;;;;;;11.98;5.65;;;13.60;99.90;;;;;;5093904;28;21116;-81
2022/10/13 16:42:10;;;;;;;10.27;6.10;;;13.60;99.90;;;;;;5078278;28;20228;-85
2022/10/13 16:44:59;;;;;;;10.98;6.70;;;13.60;99.90;;;;;;5068819;28;20595;-80
2022/10/13 16:47:50;;;;;;;16.42;6.78;;;13.60;99.90;;;;;;5096268;27;20731;-82
2022/10/13 16:50:40;;;;;;;15.02;6.60;;;13.60;99.90;;;;;;5089910;27;20216;-81
2022/10/13 16:53:29;;;;;;;17.30;6.40;;;13.60;99.90;;;;;;5106544;27;20714;-81
2022/10/13 16:56:20;;;;;;;14.40;6.57;;;13.50;99.90;;;;;;5112075;27;20230;-81
2022/10/13 16:59:10;;;;;;;15.32;6.75;;;13.40;99.90;;;;;;5118195;27;20218;-81
2022/10/13 17:01:59;;;;;;;17.92;6.90;;;13.30;99.90;;;;;;5109403;27;20339;-81
2022/10/13 17:04:52;;;;;;;16.92;7.38;;;13.30;99.90;;;;;;5096981;27;20219;-81
2022/10/13 17:07:41;;;;;;;19.67;7.55;;;13.20;99.90;;;;;;5088746;28;20812;-80
2022/10/13 17:10:30;;;;;;;20.67;7.90;;;13.20;99.90;;;;;;5097663;27;20309;-81
2022/10/13 17:13:22;;;;;;;15.35;7.82;;;13.30;99.90;;;;;;5111961;27;20237;-81
2022/10/13 17:16:11;;;;;;;15.63;7.15;;;13.20;99.90;;;;;;5086882;28;20243;-82
2022/10/13 17:19:03;;;;;;;21.75;8.20;;;13.20;99.90;;;;;;5097552;27;20219;-81
2022/10/13 17:21:56;;;;;;;16.05;7.97;;;13.10;99.90;;;;;;5085203;27;20310;-81
2022/10/13 17:24:47;;;;;;;18.75;8.05;;;13.10;99.90;;;;;;5110773;27;20959;-80
2022/10/13 17:27:36;;;;;;;18.38;8.75;;;13.10;99.90;;;;;;5102299;27;20218;-81
2022/10/13 17:30:26;;;;;;;20.58;9.00;;;13.10;99.90;;;;;;5086288;27;20211;-81
2022/10/13 17:33:15;;;;;;;18.42;8.65;;;13.00;99.90;;;;;;5108414;27;20911;-81
2022/10/13 17:36:11;;;;;;;18.50;9.10;;;13.00;99.90;;;;;;5087525;27;20291;-80
2022/10/13 17:39:04;;;;;;;21.15;9.50;;;13.00;99.90;;;;;;5104510;27;20308;-81
2022/10/13 17:41:52;;;;;;;19.63;9.25;;;12.90;99.90;;;;;;5099808;27;20226;-81
2022/10/13 17:44:42;;;;;;;22.33;9.88;;;12.80;99.90;;;;;;5097927;27;20252;-80
2022/10/13 17:47:33;;;;;;;18.05;9.20;;;12.80;99.90;;;;;;5101194;27;20225;-79
2022/10/13 17:50:22;;;;;;;17.95;9.18;;;12.80;99.90;;;;;;5093247;27;20221;-82
2022/10/13 17:53:11;;;;;;;17.98;9.55;;;12.80;99.90;;;;;;5092959;27;20722;-81
2022/10/13 17:56:00;;;;;;;17.20;8.77;;;12.70;99.90;;;;;;5106171;27;20225;-82
2022/10/13 17:58:50;;;;;;;20.23;10.00;;;12.80;99.90;;;;;;5089549;27;20647;-81
2022/10/13 18:01:40;;;;;;;20.25;9.02;;;12.80;99.90;;;;;;5097570;27;20281;-81
2022/10/13 18:04:31;;;;;;;19.75;9.73;;;12.70;99.90;;;;;;5104755;27;20219;-83
2022/10/13 18:07:19;;;;;;;21.10;10.15;;;12.70;99.90;;;;;;5089004;27;20218;-81
2022/10/13 18:10:09;;;;;;;20.52;10.40;;;12.80;99.90;;;;;;5097288;27;20308;-82
2022/10/13 18:12:58;;;;;;;18.17;9.90;;;12.70;99.90;;;;;;5102411;27;20703;-81
2022/10/13 18:15:47;;;;;;;27.08;11.57;;;12.60;99.90;;;;;;5102871;27;20533;-81
2022/10/13 18:18:38;;;;;;;22.48;10.85;;;12.60;99.90;;;;;;5089575;27;20297;-82
2022/10/13 18:21:28;;;;;;;21.13;11.40;;;12.60;99.90;;;;;;5093783;27;20223;-81
2022/10/13 18:24:17;;;;;;;21.45;11.10;;;12.60;99.90;;;;;;5090746;27;20790;-80
2022/10/13 18:27:06;;;;;;;20.55;11.82;;;12.60;99.90;;;;;;5094599;27;20357;-81
2022/10/13 18:29:57;;;;;;;24.38;11.50;;;12.50;99.90;;;;;;5097975;27;20259;-81
2022/10/13 18:32:49;;;;;;;24.98;11.75;;;12.40;99.90;;;;;;5085300;28;20234;-80
2022/10/13 18:35:38;;;;;;;20.95;11.85;;;12.50;99.90;;;;;;5081485;28;20218;-80
2022/10/13 18:38:28;;;;;;;23.15;12.32;;;12.40;99.90;;;;;;5098073;27;20230;-81
2022/10/13 18:41:19;;;;;;;27.40;13.07;;;12.40;99.90;;;;;;5079859;28;20227;-81
2022/10/13 18:44:08;;;;;;;25.00;13.07;;;12.40;99.90;;;;;;5080408;28;20219;-80
2022/10/13 18:46:57;;;;;;;26.50;13.00;;;12.30;99.90;;;;;;5083487;28;20377;-80
2022/10/13 18:49:46;;;;;;;32.40;13.35;;;12.20;99.90;;;;;;5067962;28;20217;-81
2022/10/13 18:52:34;;;;;;;28.42;12.80;;;12.20;99.90;;;;;;5094354;28;20226;-80
2022/10/13 18:55:25;;;;;;;25.08;13.23;;;12.20;99.90;;;;;;5081822;27;20215;-81
2022/10/13 18:58:14;;;;;;;25.17;12.98;;;12.10;99.90;;;;;;5082668;27;20214;-81
2022/10/13 19:01:04;;;;;;;24.50;13.20;;;12.00;99.90;;;;;;5095665;27;20223;-84
2022/10/13 19:03:54;;;;;;;22.90;13.15;;;12.00;99.90;;;;;;5085230;28;20299;-81
2022/10/13 19:06:43;;;;;;;30.00;13.15;;;12.10;99.90;;;;;;5097421;28;20226;-81
2022/10/13 19:09:32;;;;;;;25.85;13.15;;;12.00;99.90;;;;;;5084913;28;20249;-80
2022/10/13 19:12:22;;;;;;;26.20;13.77;;;11.90;99.90;;;;;;5080634;28;20234;-81
2022/10/13 19:15:11;;;;;;;27.20;13.35;;;11.90;99.90;;;;;;5094107;28;20284;-80
2022/10/13 19:18:00;;;;;;;24.85;13.63;;;11.80;99.90;;;;;;5095367;27;20215;-81
2022/10/13 19:20:49;;;;;;;23.13;13.95;;;11.80;99.90;;;;;;5095244;28;20218;-79
2022/10/13 19:23:38;;;;;;;28.20;13.77;;;11.90;99.90;;;;;;5097170;28;20237;-75
2022/10/13 19:26:36;;;;;;;31.67;13.25;;;11.90;99.90;;;;;;5085680;28;20214;-79
2022/10/13 19:29:26;;;;;;;27.60;13.80;;;11.90;99.90;;;;;;5102363;28;20227;-78
2022/10/13 19:32:15;;;;;;;26.58;14.07;;;11.70;99.90;;;;;;5087766;28;20226;-80
2022/10/13 19:35:04;;;;;;;30.88;14.93;;;11.80;99.90;;;;;;5100394;28;20297;-78
2022/10/13 19:37:53;;;;;;;26.20;14.27;;;11.80;99.90;;;;;;5084150;28;20301;-79
2022/10/13 19:40:48;;;;;;;27.60;14.65;;;11.80;99.90;;;;;;5087264;28;20611;-77
2022/10/13 19:43:37;;;;;;;25.45;14.68;;;11.70;99.90;;;;;;5100981;28;20700;-77
2022/10/13 19:46:27;;;;;;;25.27;14.07;;;11.70;99.90;;;;;;5100574;28;20219;-80
2022/10/13 19:49:18;;;;;;;24.83;14.25;;;11.70;99.90;;;;;;5085903;28;20229;-80
2022/10/13 19:52:06;;;;;;;31.50;15.18;;;11.60;99.90;;;;;;5085867;28;20249;-80
2022/10/13 19:54:59;;;;;;;25.60;14.60;;;11.60;99.90;;;;;;5079335;28;20242;-81
2022/10/13 19:57:48;;;;;;;27.45;15.15;;;11.60;99.90;;;;;;5078507;28;20211;-81
2022/10/13 20:00:39;;;;;;;31.30;15.60;;;11.60;99.90;;;;;;5096838;28;20229;-80
2022/10/13 20:03:31;;;;;;;32.50;16.88;;;11.60;99.90;;;;;;5090633;28;20223;-79
2022/10/13 20:06:21;;;;;;;30.10;16.25;;;11.60;99.90;;;;;;5093247;28;20222;-80
2022/10/13 20:09:13;;;;;;;25.33;15.45;;;11.50;99.90;;;;;;5092669;28;20981;-80
2022/10/13 20:12:02;;;;;;;29.98;15.80;;;11.50;99.90;;;;;;5082161;28;20352;-80
2022/10/13 20:14:52;;;;;;;27.77;15.75;;;11.40;99.90;;;;;;5095941;28;20371;-82
2022/10/13 20:17:41;;;;;;;34.88;16.48;;;11.50;99.90;;;;;;5090053;28;20693;-81
2022/10/13 20:20:31;;;;;;;30.60;15.07;;;11.50;99.90;;;;;;5072477;28;20222;-80
2022/10/13 20:23:20;;;;;;;28.77;15.93;;;11.50;99.90;;;;;;5092892;28;20373;-81
2022/10/13 20:26:12;;;;;;;36.45;16.05;;;11.40;99.90;;;;;;5080254;28;20932;-80
2022/10/13 20:29:01;;;;;;;36.05;16.45;;;11.40;99.90;;;;;;5092777;28;20315;-80
2022/10/13 20:31:50;;;;;;;25.70;15.52;;;11.20;99.90;;;;;;5080506;28;20227;-81
2022/10/13 20:34:38;;;;;;;29.40;16.70;;;11.20;99.90;;;;;;5096603;28;20229;-79
2022/10/13 20:37:29;;;;;;;27.77;15.57;;;11.20;99.90;;;;;;5090216;28;20238;-79
2022/10/13 20:40:17;;;;;;;31.00;16.30;;;11.20;99.90;;;;;;5078900;28;20231;-79
2022/10/13 20:43:06;;;;;;;29.30;16.10;;;11.20;99.90;;;;;;5090224;28;20223;-78
2022/10/13 20:45:59;;;;;;;29.92;15.40;;;11.20;99.90;;;;;;5089567;28;20239;-81
2022/10/13 20:48:49;;;;;;;28.15;15.07;;;11.20;99.90;;;;;;5082713;28;20237;-78
2022/10/13 20:51:57;;;;;;;31.70;16.50;;;11.10;99.90;;;;;;5097212;28;20235;-78
2022/10/13 20:54:47;;;;;;;31.92;15.77;;;11.10;99.90;;;;;;5100781;27;20214;-78
2022/10/13 20:57:36;;;;;;;30.00;15.57;;;11.00;99.90;;;;;;5082138;28;20219;-78
2022/10/13 21:00:25;;;;;;;31.15;17.40;;;11.00;99.90;;;;;;5084128;28;20227;-78
2022/10/13 21:03:14;;;;;;;29.42;16.17;;;11.10;99.90;;;;;;5081733;28;20733;-80
2022/10/13 21:06:04;;;;;;;29.77;16.23;;;11.10;99.90;;;;;;5088773;28;20227;-79
2022/10/13 21:08:53;;;;;;;30.88;16.33;;;11.10;99.90;;;;;;5101710;28;20269;-80
2022/10/13 21:11:43;;;;;;;31.58;16.77;;;11.10;99.90;;;;;;5099558;28;20231;-79
2022/10/13 21:14:32;;;;;;;29.50;16.65;;;11.10;99.90;;;;;;5096238;27;20215;-79
2022/10/13 21:17:21;;;;;;;31.20;16.85;;;11.10;99.90;;;;;;5101510;28;20229;-78
2022/10/13 21:20:11;;;;;;;29.40;16.67;;;11.00;99.90;;;;;;5096592;28;20728;-79
2022/10/13 21:23:00;;;;;;;30.67;16.73;;;11.10;99.90;;;;;;5082146;28;20219;-79
2022/10/13 21:25:49;;;;;;;31.27;17.23;;;11.00;99.90;;;;;;5099830;28;20223;-80
2022/10/13 21:28:39;;;;;;;30.80;17.80;;;11.00;99.90;;;;;;5092716;28;20226;-80
2022/10/13 21:31:28;;;;;;;31.08;18.20;;;11.00;99.90;;;;;;5100045;28;20219;-79
2022/10/13 21:34:17;;;;;;;32.17;17.00;;;10.80;99.90;;;;;;5102468;28;20876;-78
2022/10/13 21:37:06;;;;;;;32.92;18.20;;;10.80;99.90;;;;;;5083741;28;20275;-80
2022/10/13 21:39:54;;;;;;;29.15;17.63;;;10.80;99.90;;;;;;5082573;28;20221;-78
2022/10/13 21:42:43;;;;;;;32.90;18.20;;;10.80;99.90;;;;;;5094360;28;20222;-80
2022/10/13 21:45:34;;;;;;;39.28;18.48;;;10.90;99.90;;;;;;5078624;28;20223;-79
2022/10/13 21:48:22;;;;;;;31.13;17.17;;;10.80;99.90;;;;;;5091868;28;20222;-79
2022/10/13 21:51:13;;;;;;;39.15;18.60;;;10.80;99.90;;;;;;5087330;28;20226;-80
2022/10/13 21:54:03;;;;;;;35.50;17.65;;;10.80;99.90;;;;;;5092994;28;20791;-80
2022/10/13 21:56:52;;;;;;;34.88;18.65;;;10.80;99.90;;;;;;5093007;28;20223;-80
2022/10/13 21:59:41;;;;;;;32.38;19.02;;;10.70;99.90;;;;;;5090517;28;20216;-80
2022/10/13 22:02:31;;;;;;;33.80;18.42;;;10.80;99.90;;;;;;5100186;27;20223;-79
2022/10/13 22:05:20;;;;;;;31.52;19.00;;;10.80;99.90;;;;;;5089159;27;20226;-75
2022/10/13 22:08:12;;;;;;;36.78;19.90;;;10.70;99.90;;;;;;5085773;27;20230;-81
2022/10/13 22:11:01;;;;;;;33.85;18.65;;;10.60;99.90;;;;;;5086156;27;20229;-82
2022/10/13 22:13:50;;;;;;;33.15;19.65;;;10.60;99.90;;;;;;5092599;28;20214;-81
2022/10/13 22:16:41;;;;;;;29.92;18.40;;;10.60;99.90;;;;;;5096264;28;20326;-81
2022/10/13 22:19:31;;;;;;;36.85;20.00;;;10.50;99.90;;;;;;5077899;28;20234;-82
2022/10/13 22:22:20;;;;;;;37.90;19.75;;;10.50;99.90;;;;;;5094819;28;20223;-82
2022/10/13 22:25:09;;;;;;;35.13;19.55;;;10.40;99.90;;;;;;5095398;27;20214;-84
2022/10/13 22:27:58;;;;;;;35.25;20.02;;;10.40;99.90;;;;;;5080221;27;21026;-84
2022/10/13 22:30:47;;;;;;;34.58;19.98;;;10.40;99.90;;;;;;5099417;27;21207;-82
2022/10/13 22:33:38;;;;;;;37.05;20.63;;;10.40;99.90;;;;;;5097110;28;20277;-81
2022/10/13 22:36:29;;;;;;;35.20;19.88;;;10.40;99.90;;;;;;5102782;27;20686;-83
2022/10/13 22:39:18;;;;;;;36.70;19.08;;;10.40;99.90;;;;;;5102719;28;20306;-82
2022/10/13 22:42:07;;;;;;;37.45;19.30;;;10.30;99.90;;;;;;5103428;28;20215;-82
2022/10/13 22:44:56;;;;;;;31.58;18.70;;;10.40;99.90;;;;;;5083514;28;20702;-82
2022/10/13 22:47:48;;;;;;;33.80;19.63;;;10.50;99.90;;;;;;5096285;28;20718;-82
2022/10/13 22:50:37;;;;;;;31.98;20.13;;;10.40;99.90;;;;;;5095262;28;20632;-81
2022/10/13 22:53:28;;;;;;;39.55;19.85;;;10.30;99.90;;;;;;5080400;28;20216;-82
2022/10/13 22:56:19;;;;;;;33.15;19.88;;;10.30;99.90;;;;;;5093839;28;20673;-81
2022/10/13 22:59:08;;;;;;;33.30;19.05;;;10.20;99.90;;;;;;5088730;27;20218;-82
2022/10/13 23:01:57;;;;;;;38.80;19.55;;;10.10;99.90;;;;;;5091983;28;20214;-83
2022/10/13 23:04:49;;;;;;;39.15;20.05;;;10.10;99.90;;;;;;5090066;28;20214;-84
2022/10/13 23:07:37;;;;;;;36.63;20.15;;;10.20;99.90;;;;;;5100997;28;20219;-83
2022/10/13 23:10:27;;;;;;;37.90;20.38;;;9.90;99.90;;;;;;5104284;27;20238;-84
2022/10/13 23:13:16;;;;;;;37.65;19.30;;;10.10;99.90;;;;;;5098674;28;20219;-84
2022/10/13 23:16:11;;;;;;;33.60;19.52;;;10.00;99.90;;;;;;5110327;28;20286;-82
2022/10/13 23:19:02;;;;;;;38.03;19.33;;;10.00;99.90;;;;;;5095459;28;20223;-84
2022/10/13 23:21:51;;;;;;;37.53;19.98;;;9.90;99.90;;;;;;5095773;28;20223;-83
2022/10/13 23:24:40;;;;;;;31.75;18.75;;;10.10;99.90;;;;;;5084431;27;20226;-78
2022/10/13 23:27:30;;;;;;;34.30;19.15;;;10.10;99.90;;;;;;5086595;28;20242;-80
2022/10/13 23:30:18;;;;;;;36.05;20.15;;;10.10;99.90;;;;;;5091325;28;20226;-82
2022/10/13 23:33:08;;;;;;;32.42;18.40;;;10.00;99.90;;;;;;5079039;28;20219;-82
2022/10/13 23:35:59;;;;;;;33.13;18.60;;;10.10;99.90;;;;;;5089824;28;20280;-83